Main page
METAR-TAF:

METAR-TAF

Airports :

Oxford Airport

Oxford, England

latitude: 51-50-13N, longitude: 1-19-12W, elevation: 82 m

Current weather observation

The report was made 25 minutes ago, at 18:50 UTC
Wind 13 kt from the South
Temperature 16°C
Humidity 59%
Pressure 1006 hPa
Visibility 10 km or more
Few clouds at a height of 4000 ft, Cumulonimbus.

METAR: EGTK 251850Z 18013KT 9999 FEW040CB 16/08 Q1006

Time: 20:15 (19:15 UTC)

Forecast

The report was made 2 hours and 20 minutes ago, at 16:55 UTC
Forecast valid from 25 at 18 UTC to 25 at 22 UTC
Wind 9 kt from the South
Visibility 10 km or more
Few clouds at a height of 4500 ft
Probability 30% :
Temporary
from 25 at 18 UTC to 25 at 20 UTC
Visibility: 8000 m
rain

TAF: EGTK 251655Z 2518/2522 18009KT 9999 FEW045 PROB30 TEMPO 2518/2520 8000 RA

Weather observations and forecasts of more than 4000 airports (METAR and TAF reports).

The available stations are represented by yellow and red dots on the map.

Hover mouse over dot to see the name of the station.

Then click to see weather observations and forecasts.

To change the map : click on the green buttons with a black cross to zoom in, on the green button with a dash to zoom out, or on the green arrows for adjacent maps.


METAR-TAF: